Time;durP1;ratioP1;P1;durP2;ratioP2;P2;SDS_P1;SDS_P2;PMS_P1;PMS_P2;Temp;Humidity;BMP_temperature;BMP_pressure;BME280_temperature;BME280_humidity;BME280_pressure;Samples;Min_cycle;Max_cycle;Signal;HPM_P1;HPM_P2
2022/05/05 00:02:24;;;;;;;18.63;8.43;;;;;;;;;;5014765;28;20042;-65
2022/05/05 00:04:50;;;;;;;13.43;8.35;;;;;;;;;;5016197;28;20045;-65
2022/05/05 00:07:16;;;;;;;11.27;8.10;;;;;;;;;;5003606;28;20054;-65
2022/05/05 00:09:42;;;;;;;18.15;8.38;;;;;;;;;;5004028;28;20537;-64
2022/05/05 00:14:55;;;;;;;16.83;8.85;;;;;;;;;;5014181;28;20045;-65
2022/05/05 00:17:21;;;;;;;18.30;8.48;;;;;;;;;;5012858;28;20405;-65
2022/05/05 00:19:47;;;;;;;15.80;8.10;;;;;;;;;;5013808;28;20128;-65
2022/05/05 00:22:14;;;;;;;15.43;7.18;;;;;;;;;;5001220;28;20153;-65
2022/05/05 00:24:40;;;;;;;16.70;7.70;;;;;;;;;;4999490;28;20390;-65
2022/05/05 00:27:07;;;;;;;19.17;7.65;;;;;;;;;;5003917;28;20070;-65
2022/05/05 00:29:33;;;;;;;19.58;8.52;;;;;;;;;;5002795;28;20045;-65
2022/05/05 00:32:00;;;;;;;17.27;7.75;;;;;;;;;;5002822;28;20054;-65
2022/05/05 00:34:26;;;;;;;14.55;7.38;;;;;;;;;;5003437;28;20061;-65
2022/05/05 00:36:52;;;;;;;13.98;7.32;;;;;;;;;;5012770;28;20050;-65
2022/05/05 00:39:18;;;;;;;13.70;7.57;;;;;;;;;;5006446;28;20091;-65
2022/05/05 00:41:45;;;;;;;16.30;7.53;;;;;;;;;;5013481;28;20155;-65
2022/05/05 00:44:12;;;;;;;15.93;7.25;;;;;;;;;;5018754;28;20113;-65
2022/05/05 00:46:39;;;;;;;19.27;8.32;;;;;;;;;;5015142;28;20089;-65
2022/05/05 00:49:06;;;;;;;15.07;7.70;;;;;;;;;;5010412;28;20120;-65
2022/05/05 00:51:32;;;;;;;15.95;8.70;;;;;;;;;;5010128;28;20133;-65
2022/05/05 00:53:58;;;;;;;13.30;8.05;;;;;;;;;;5012459;28;20077;-65
2022/05/05 00:56:25;;;;;;;16.73;8.27;;;;;;;;;;5014826;28;20062;-65
2022/05/05 00:58:53;;;;;;;17.25;8.82;;;;;;;;;;5005170;28;20163;-65
2022/05/05 01:01:20;;;;;;;15.85;8.70;;;;;;;;;;5011542;28;20064;-65
2022/05/05 01:03:46;;;;;;;17.83;9.02;;;;;;;;;;5013667;28;20045;-65
2022/05/05 01:06:14;;;;;;;15.77;7.93;;;;;;;;;;5012020;28;20684;-65
2022/05/05 01:08:41;;;;;;;15.80;8.15;;;;;;;;;;5008879;28;20116;-65
2022/05/05 01:11:07;;;;;;;16.70;7.40;;;;;;;;;;5010820;28;20049;-65
2022/05/05 01:13:34;;;;;;;17.75;8.07;;;;;;;;;;5009848;28;20071;-65
2022/05/05 01:16:00;;;;;;;13.95;7.85;;;;;;;;;;4995856;28;20068;-65
2022/05/05 01:18:26;;;;;;;13.70;7.30;;;;;;;;;;5012613;28;20040;-65
2022/05/05 01:20:54;;;;;;;12.00;7.53;;;;;;;;;;5014638;28;20093;-66
2022/05/05 01:23:21;;;;;;;14.13;7.90;;;;;;;;;;4996179;28;20063;-65
2022/05/05 01:28:33;;;;;;;18.35;8.20;;;;;;;;;;5001565;28;20042;-65
2022/05/05 01:31:00;;;;;;;15.73;7.55;;;;;;;;;;4992162;28;20049;-65
2022/05/05 01:33:28;;;;;;;15.32;7.53;;;;;;;;;;4993724;28;20042;-65
2022/05/05 01:35:55;;;;;;;14.95;8.88;;;;;;;;;;5014501;28;20048;-65
2022/05/05 01:38:23;;;;;;;18.73;10.05;;;;;;;;;;5000508;28;20174;-65
2022/05/05 01:40:49;;;;;;;12.70;7.47;;;;;;;;;;5015509;28;20124;-65
2022/05/05 01:43:17;;;;;;;22.23;8.65;;;;;;;;;;5002797;28;20042;-65
2022/05/05 01:45:44;;;;;;;14.23;8.13;;;;;;;;;;5014447;28;20042;-65
2022/05/05 01:48:10;;;;;;;16.75;9.05;;;;;;;;;;5016432;28;20508;-65
2022/05/05 01:50:37;;;;;;;16.08;8.63;;;;;;;;;;5010421;28;20037;-65
2022/05/05 01:53:04;;;;;;;18.13;8.85;;;;;;;;;;4995712;28;20085;-65
2022/05/05 01:55:30;;;;;;;19.92;9.00;;;;;;;;;;5004563;28;20390;-65
2022/05/05 01:57:57;;;;;;;14.90;8.25;;;;;;;;;;5014171;28;20060;-65
2022/05/05 02:00:24;;;;;;;16.13;8.55;;;;;;;;;;5017162;28;20033;-65
2022/05/05 02:02:50;;;;;;;16.77;8.40;;;;;;;;;;5015986;28;20401;-65
2022/05/05 02:05:17;;;;;;;14.73;9.23;;;;;;;;;;5015852;28;20038;-65
2022/05/05 02:07:44;;;;;;;16.65;9.45;;;;;;;;;;5009424;28;20049;-65
2022/05/05 02:10:13;;;;;;;21.48;9.20;;;;;;;;;;5018029;28;20085;-65
2022/05/05 02:12:40;;;;;;;18.13;8.93;;;;;;;;;;5022882;28;20046;-65
2022/05/05 02:15:08;;;;;;;15.45;8.55;;;;;;;;;;5013919;28;20592;-65
2022/05/05 02:17:34;;;;;;;16.17;8.43;;;;;;;;;;5007793;28;20053;-65
2022/05/05 02:20:00;;;;;;;25.77;8.98;;;;;;;;;;5001946;28;20045;-65
2022/05/05 02:22:27;;;;;;;17.95;9.85;;;;;;;;;;5008367;28;20085;-65
2022/05/05 02:24:53;;;;;;;15.05;9.13;;;;;;;;;;5016719;28;20045;-65
2022/05/05 02:27:19;;;;;;;12.15;8.93;;;;;;;;;;5013380;28;20049;-65
2022/05/05 02:29:46;;;;;;;17.23;9.43;;;;;;;;;;5016110;28;20116;-65
2022/05/05 02:32:12;;;;;;;17.98;8.43;;;;;;;;;;5011065;28;20053;-65
2022/05/05 02:34:39;;;;;;;15.20;10.25;;;;;;;;;;5015606;28;20037;-65
2022/05/05 02:39:50;;;;;;;19.23;9.27;;;;;;;;;;5016474;28;20059;-65
2022/05/05 02:42:17;;;;;;;19.63;9.88;;;;;;;;;;5003012;28;20053;-65
2022/05/05 02:44:43;;;;;;;14.88;10.07;;;;;;;;;;5008308;28;20067;-65
2022/05/05 02:47:09;;;;;;;16.50;9.13;;;;;;;;;;5019918;28;20046;-65
2022/05/05 02:49:36;;;;;;;16.55;9.98;;;;;;;;;;5016799;28;20065;-65
2022/05/05 02:52:03;;;;;;;15.60;8.93;;;;;;;;;;5012975;28;20148;-65
2022/05/05 02:54:47;;;;;;;16.60;9.18;;;;;;;;;;5007008;28;20040;-65
2022/05/05 02:57:15;;;;;;;22.92;8.65;;;;;;;;;;5019969;28;20076;-65
2022/05/05 02:59:41;;;;;;;15.43;10.00;;;;;;;;;;5014854;28;20129;-65
2022/05/05 03:02:08;;;;;;;18.85;9.70;;;;;;;;;;5000583;28;20058;-65
2022/05/05 03:04:34;;;;;;;16.60;8.73;;;;;;;;;;5014867;28;20044;-65
2022/05/05 03:07:00;;;;;;;20.27;9.85;;;;;;;;;;5001599;28;20092;-65
2022/05/05 03:09:27;;;;;;;18.08;10.13;;;;;;;;;;5007377;28;20067;-65
2022/05/05 03:11:53;;;;;;;14.65;9.38;;;;;;;;;;5004190;28;20094;-65
2022/05/05 03:14:19;;;;;;;21.77;10.38;;;;;;;;;;5017897;28;20053;-65
2022/05/05 03:16:45;;;;;;;14.95;8.55;;;;;;;;;;5012297;28;20141;-65
2022/05/05 03:19:11;;;;;;;13.90;8.77;;;;;;;;;;5011811;28;20042;-65
2022/05/05 03:21:38;;;;;;;15.13;9.02;;;;;;;;;;5008428;28;20088;-65
2022/05/05 03:24:04;;;;;;;15.48;9.45;;;;;;;;;;5013348;28;20034;-65
2022/05/05 03:26:31;;;;;;;20.40;9.75;;;;;;;;;;5014917;28;20143;-65
2022/05/05 03:28:57;;;;;;;16.48;10.35;;;;;;;;;;5016446;28;20037;-65
2022/05/05 03:31:23;;;;;;;26.02;9.75;;;;;;;;;;5005908;28;20528;-65
2022/05/05 03:33:49;;;;;;;14.07;8.70;;;;;;;;;;4995560;28;20053;-65
2022/05/05 03:36:16;;;;;;;17.02;10.05;;;;;;;;;;5004681;28;20052;-65
2022/05/05 03:38:42;;;;;;;22.75;10.00;;;;;;;;;;5013424;28;20485;-65
2022/05/05 03:41:09;;;;;;;17.58;9.73;;;;;;;;;;4995228;28;20112;-65
2022/05/05 03:43:35;;;;;;;20.77;10.10;;;;;;;;;;4996577;28;20053;-65
2022/05/05 03:46:01;;;;;;;21.23;9.55;;;;;;;;;;5017808;28;20129;-65
2022/05/05 03:48:27;;;;;;;12.25;8.70;;;;;;;;;;5013403;28;20046;-65
2022/05/05 03:50:53;;;;;;;17.85;9.40;;;;;;;;;;5001138;28;20069;-65
2022/05/05 03:53:20;;;;;;;20.42;9.73;;;;;;;;;;4996334;28;20080;-65
2022/05/05 03:55:46;;;;;;;21.63;9.65;;;;;;;;;;5012738;28;20116;-65
2022/05/05 03:58:12;;;;;;;18.52;10.23;;;;;;;;;;5002812;28;20053;-65
2022/05/05 04:00:38;;;;;;;15.90;9.88;;;;;;;;;;5000221;28;20125;-65
2022/05/05 04:05:49;;;;;;;14.98;9.48;;;;;;;;;;5001702;28;20057;-65
2022/05/05 04:08:15;;;;;;;20.38;10.30;;;;;;;;;;5008330;28;20046;-65
2022/05/05 04:10:42;;;;;;;20.33;10.38;;;;;;;;;;5011457;28;20132;-65
2022/05/05 04:13:08;;;;;;;19.13;10.60;;;;;;;;;;5010851;28;20126;-65
2022/05/05 04:15:34;;;;;;;16.02;9.57;;;;;;;;;;5013568;28;20171;-65
2022/05/05 04:18:01;;;;;;;17.55;9.45;;;;;;;;;;5013701;28;22070;-65
2022/05/05 04:20:28;;;;;;;21.50;10.77;;;;;;;;;;5012066;28;20060;-65
2022/05/05 04:22:54;;;;;;;15.50;9.82;;;;;;;;;;5011747;28;21123;-65
2022/05/05 04:25:20;;;;;;;22.92;11.50;;;;;;;;;;5010281;28;20401;-65
2022/05/05 04:27:46;;;;;;;18.23;9.80;;;;;;;;;;5010842;28;20131;-65
2022/05/05 04:30:16;;;;;;;18.10;11.30;;;;;;;;;;5012244;28;20053;-65
2022/05/05 04:32:42;;;;;;;17.90;9.10;;;;;;;;;;5011619;28;20151;-65
2022/05/05 04:35:09;;;;;;;20.90;10.15;;;;;;;;;;5006278;28;20076;-65
2022/05/05 04:37:35;;;;;;;23.05;11.35;;;;;;;;;;5004890;28;20096;-65
2022/05/05 04:40:01;;;;;;;17.73;10.80;;;;;;;;;;4997025;28;20048;-65
2022/05/05 04:42:28;;;;;;;20.30;10.73;;;;;;;;;;5011880;28;20054;-65
2022/05/05 04:44:54;;;;;;;18.45;10.40;;;;;;;;;;5016669;28;20087;-65
2022/05/05 04:47:20;;;;;;;17.67;10.05;;;;;;;;;;5020240;28;20061;-65
2022/05/05 04:49:46;;;;;;;21.38;11.60;;;;;;;;;;4996067;28;20049;-65
2022/05/05 04:52:12;;;;;;;19.77;10.50;;;;;;;;;;5010935;28;20053;-65
2022/05/05 04:54:38;;;;;;;22.05;9.35;;;;;;;;;;5002002;28;20088;-65
2022/05/05 04:57:05;;;;;;;15.65;10.38;;;;;;;;;;5020514;28;20100;-65
2022/05/05 04:59:31;;;;;;;22.30;10.52;;;;;;;;;;5014064;28;20088;-65
2022/05/05 05:01:57;;;;;;;13.40;9.95;;;;;;;;;;5010935;28;20144;-65
2022/05/05 05:04:23;;;;;;;21.33;10.73;;;;;;;;;;5016123;28;20045;-65
2022/05/05 05:06:49;;;;;;;20.65;10.13;;;;;;;;;;5003535;28;20080;-63
2022/05/05 05:09:15;;;;;;;19.45;9.25;;;;;;;;;;5003003;28;20045;-63
2022/05/05 05:11:41;;;;;;;17.65;10.20;;;;;;;;;;5011964;28;20049;-63
2022/05/05 05:14:08;;;;;;;14.80;10.07;;;;;;;;;;5012384;28;20052;-65
2022/05/05 05:16:34;;;;;;;21.73;10.20;;;;;;;;;;5002898;28;20103;-65
2022/05/05 05:19:02;;;;;;;19.27;9.40;;;;;;;;;;5013308;28;20046;-65
2022/05/05 05:21:28;;;;;;;18.83;10.23;;;;;;;;;;5009647;28;20484;-65
2022/05/05 05:23:54;;;;;;;19.95;9.63;;;;;;;;;;5013462;28;20042;-65
2022/05/05 05:26:20;;;;;;;16.25;9.68;;;;;;;;;;4998658;28;20107;-65
2022/05/05 05:28:46;;;;;;;26.05;12.23;;;;;;;;;;5001207;28;20041;-65
2022/05/05 05:31:12;;;;;;;23.52;11.02;;;;;;;;;;5014993;28;20075;-65
2022/05/05 05:33:39;;;;;;;23.35;13.23;;;;;;;;;;5002603;28;20080;-64
2022/05/05 05:36:05;;;;;;;23.70;12.55;;;;;;;;;;5007327;28;20179;-64
2022/05/05 05:38:31;;;;;;;21.42;11.10;;;;;;;;;;4996667;28;20068;-64
2022/05/05 05:40:57;;;;;;;21.23;12.65;;;;;;;;;;4996859;28;20044;-64
2022/05/05 05:43:23;;;;;;;21.73;12.80;;;;;;;;;;5025065;28;20045;-65
2022/05/05 05:45:50;;;;;;;22.23;11.75;;;;;;;;;;5014774;28;20049;-64
2022/05/05 05:48:16;;;;;;;19.90;11.77;;;;;;;;;;5015953;28;20111;-64
2022/05/05 05:50:42;;;;;;;22.52;11.63;;;;;;;;;;5015690;28;20521;-64
2022/05/05 05:53:08;;;;;;;18.77;12.13;;;;;;;;;;5000343;28;20064;-64
2022/05/05 05:55:35;;;;;;;25.05;13.02;;;;;;;;;;4998645;28;20120;-64
2022/05/05 05:58:01;;;;;;;26.25;13.43;;;;;;;;;;5004568;28;20059;-64
2022/05/05 06:00:28;;;;;;;24.13;12.02;;;;;;;;;;5017770;28;20382;-64
2022/05/05 06:05:39;;;;;;;23.27;12.52;;;;;;;;;;5009257;28;20401;-64
2022/05/05 06:08:05;;;;;;;22.60;12.43;;;;;;;;;;4999431;28;20133;-64
2022/05/05 06:10:31;;;;;;;24.98;12.95;;;;;;;;;;5015617;28;20120;-64
2022/05/05 06:12:58;;;;;;;20.33;11.68;;;;;;;;;;5020216;28;20042;-64
2022/05/05 06:15:24;;;;;;;20.77;12.55;;;;;;;;;;5016132;28;20201;-64
2022/05/05 06:17:51;;;;;;;22.50;12.52;;;;;;;;;;5016318;28;20053;-64
2022/05/05 06:20:17;;;;;;;22.63;11.73;;;;;;;;;;5018822;28;20081;-66
2022/05/05 06:22:43;;;;;;;25.73;12.93;;;;;;;;;;5018862;28;20088;-64
2022/05/05 06:25:16;;;;;;;25.92;13.20;;;;;;;;;;4997326;28;20104;-64
2022/05/05 06:27:42;;;;;;;17.90;12.75;;;;;;;;;;5017026;28;20389;-65
2022/05/05 06:30:10;;;;;;;25.35;12.38;;;;;;;;;;4998287;28;20118;-64
2022/05/05 06:32:36;;;;;;;26.25;12.95;;;;;;;;;;5003505;28;20132;-64
2022/05/05 06:35:03;;;;;;;25.45;12.23;;;;;;;;;;5004383;28;20042;-64
2022/05/05 06:37:29;;;;;;;15.30;10.90;;;;;;;;;;5015844;28;20093;-64
2022/05/05 06:39:55;;;;;;;23.35;11.07;;;;;;;;;;5002966;28;20762;-64
2022/05/05 06:42:22;;;;;;;20.27;11.32;;;;;;;;;;5015865;28;20045;-67
2022/05/05 06:44:48;;;;;;;19.30;11.18;;;;;;;;;;5006857;28;20049;-66
2022/05/05 06:47:15;;;;;;;18.13;11.02;;;;;;;;;;5005207;28;20072;-67
2022/05/05 06:49:41;;;;;;;18.05;10.13;;;;;;;;;;4999247;28;20149;-67
2022/05/05 06:52:07;;;;;;;21.00;11.40;;;;;;;;;;5002714;28;20124;-67
2022/05/05 06:54:34;;;;;;;18.38;11.20;;;;;;;;;;5000063;28;20050;-67
2022/05/05 06:57:00;;;;;;;20.70;10.40;;;;;;;;;;5019554;28;20038;-67
2022/05/05 06:59:26;;;;;;;20.02;10.23;;;;;;;;;;5019128;28;20042;-64
2022/05/05 07:01:52;;;;;;;17.58;10.02;;;;;;;;;;5004500;28;20564;-64
2022/05/05 07:07:16;;;;;;;28.35;12.10;;;;;;;;;;5011854;28;20053;-64
2022/05/05 07:12:28;;;;;;;20.10;11.07;;;;;;;;;;5020461;28;20042;-64
2022/05/05 07:14:55;;;;;;;20.25;11.70;;;;;;;;;;5006012;28;20045;-64
2022/05/05 07:17:21;;;;;;;17.55;11.18;;;;;;;;;;5022850;28;20460;-64
2022/05/05 07:19:47;;;;;;;20.33;11.05;;;;;;;;;;5001981;28;20173;-64
2022/05/05 07:22:14;;;;;;;20.25;10.82;;;;;;;;;;5018512;28;20049;-63
2022/05/05 07:24:40;;;;;;;23.13;11.63;;;;;;;;;;5020216;28;20037;-75
2022/05/05 07:27:06;;;;;;;21.92;12.35;;;;;;;;;;5005271;28;20132;-64
2022/05/05 07:29:33;;;;;;;16.30;10.82;;;;;;;;;;5024137;28;20033;-64
2022/05/05 07:31:59;;;;;;;19.52;9.88;;;;;;;;;;5025636;28;20057;-64
2022/05/05 07:34:25;;;;;;;17.02;9.77;;;;;;;;;;5025280;28;20122;-64
2022/05/05 07:36:51;;;;;;;15.40;8.98;;;;;;;;;;5024710;28;20097;-64
2022/05/05 07:39:18;;;;;;;14.57;9.27;;;;;;;;;;5024067;28;20126;-64
2022/05/05 07:41:44;;;;;;;23.25;10.65;;;;;;;;;;5021555;28;20505;-64
2022/05/05 07:44:10;;;;;;;19.33;9.95;;;;;;;;;;5021430;28;20584;-64
2022/05/05 07:46:37;;;;;;;16.25;8.43;;;;;;;;;;5022586;28;20053;-64
2022/05/05 07:49:04;;;;;;;15.85;8.27;;;;;;;;;;5022971;28;20100;-64
2022/05/05 07:51:31;;;;;;;15.15;8.30;;;;;;;;;;5019389;28;20382;-64
2022/05/05 07:56:43;;;;;;;17.05;8.27;;;;;;;;;;5009563;28;20049;-64
2022/05/05 07:59:09;;;;;;;17.40;7.40;;;;;;;;;;5018144;28;20041;-64
2022/05/05 08:01:35;;;;;;;13.77;6.97;;;;;;;;;;5000454;28;20049;-64
2022/05/05 08:04:02;;;;;;;19.33;8.35;;;;;;;;;;5024285;28;20060;-64
2022/05/05 08:06:28;;;;;;;17.35;6.65;;;;;;;;;;5003773;28;20049;-64
2022/05/05 08:08:54;;;;;;;19.67;7.63;;;;;;;;;;5004179;28;20046;-64
2022/05/05 08:11:20;;;;;;;14.48;8.23;;;;;;;;;;5001001;28;20089;-64
2022/05/05 08:13:46;;;;;;;15.05;7.13;;;;;;;;;;5024695;28;20091;-64
2022/05/05 08:16:13;;;;;;;18.40;7.47;;;;;;;;;;5016413;28;20057;-64
2022/05/05 08:18:39;;;;;;;13.40;6.45;;;;;;;;;;5020645;28;20125;-64
2022/05/05 08:21:06;;;;;;;17.05;7.60;;;;;;;;;;5019185;28;20073;-64
2022/05/05 08:23:33;;;;;;;12.82;5.88;;;;;;;;;;5007680;28;20443;-64
2022/05/05 08:28:44;;;;;;;13.13;5.72;;;;;;;;;;5014299;28;20382;-64
2022/05/05 08:31:11;;;;;;;13.73;6.18;;;;;;;;;;5021625;28;20107;-64
2022/05/05 08:33:38;;;;;;;12.60;4.30;;;;;;;;;;5017871;28;20152;-64
2022/05/05 08:36:05;;;;;;;11.63;4.57;;;;;;;;;;5021214;28;20057;-64
2022/05/05 08:38:32;;;;;;;13.85;6.10;;;;;;;;;;5021285;28;20049;-64
2022/05/05 08:40:58;;;;;;;10.73;5.68;;;;;;;;;;5023293;28;20040;-64
2022/05/05 08:43:24;;;;;;;10.20;5.03;;;;;;;;;;5009823;28;20578;-64
2022/05/05 08:45:53;;;;;;;10.90;5.15;;;;;;;;;;4999076;28;20037;-64
2022/05/05 08:48:20;;;;;;;10.95;5.63;;;;;;;;;;5025610;28;20122;-64
2022/05/05 08:50:52;;;;;;;10.75;5.35;;;;;;;;;;5014481;28;20422;-64
2022/05/05 08:53:19;;;;;;;10.07;4.90;;;;;;;;;;5020285;28;20057;-64
2022/05/05 08:55:46;;;;;;;11.80;5.38;;;;;;;;;;5001997;28;20065;-64
2022/05/05 08:58:13;;;;;;;11.88;5.53;;;;;;;;;;5010119;28;20041;-64
2022/05/05 09:00:39;;;;;;;14.95;6.40;;;;;;;;;;5022191;28;20078;-74
2022/05/05 09:03:08;;;;;;;11.90;4.90;;;;;;;;;;5000945;28;20505;-64
2022/05/05 09:05:44;;;;;;;13.48;4.63;;;;;;;;;;5018539;28;20038;-64
2022/05/05 09:08:11;;;;;;;11.13;5.57;;;;;;;;;;5005259;28;20046;-64
2022/05/05 09:10:42;;;;;;;17.55;6.18;;;;;;;;;;5003285;28;20448;-65
2022/05/05 09:13:09;;;;;;;11.75;6.38;;;;;;;;;;5005642;28;20128;-64
2022/05/05 09:15:36;;;;;;;11.40;6.47;;;;;;;;;;5013974;28;20365;-64
2022/05/05 09:18:13;;;;;;;11.45;6.43;;;;;;;;;;5014422;28;20049;-64
2022/05/05 09:20:39;;;;;;;10.52;6.50;;;;;;;;;;5015400;28;20053;-64
2022/05/05 09:23:06;;;;;;;13.82;6.60;;;;;;;;;;5005704;28;20060;-64
2022/05/05 09:25:45;;;;;;;9.82;6.07;;;;;;;;;;5008889;28;20037;-64
2022/05/05 09:28:16;;;;;;;11.98;5.78;;;;;;;;;;5014969;28;20111;-64
2022/05/05 09:30:46;;;;;;;12.40;6.68;;;;;;;;;;5013079;28;20037;-64
2022/05/05 09:33:14;;;;;;;13.02;7.22;;;;;;;;;;5002381;28;20119;-64
2022/05/05 09:35:41;;;;;;;11.45;7.78;;;;;;;;;;5001546;28;20061;-64
2022/05/05 09:38:07;;;;;;;12.68;6.75;;;;;;;;;;5012712;28;20539;-78
2022/05/05 09:40:33;;;;;;;13.85;7.88;;;;;;;;;;5002510;28;20140;-79
2022/05/05 09:43:01;;;;;;;14.38;7.10;;;;;;;;;;5016654;28;20053;-64
2022/05/05 09:45:41;;;;;;;16.15;7.57;;;;;;;;;;5018492;28;20050;-64
2022/05/05 09:48:09;;;;;;;11.55;6.53;;;;;;;;;;5018714;28;20050;-64
2022/05/05 09:50:53;;;;;;;9.30;6.07;;;;;;;;;;5016007;28;20103;-64
2022/05/05 09:59:34;;;;;;;10.60;6.63;;;;;;;;;;5009758;28;20125;-64
2022/05/05 10:05:24;;;;;;;11.98;7.45;;;;;;;;;;5014786;28;20374;-64
2022/05/05 10:07:52;;;;;;;11.70;6.82;;;;;;;;;;5007574;28;20080;-64
2022/05/05 10:10:19;;;;;;;10.43;6.70;;;;;;;;;;5016759;28;20037;-64
2022/05/05 10:12:47;;;;;;;10.82;6.50;;;;;;;;;;4999001;28;20454;-64
2022/05/05 10:15:13;;;;;;;12.40;6.45;;;;;;;;;;5009673;28;20054;-64
2022/05/05 10:17:40;;;;;;;11.52;6.75;;;;;;;;;;5019525;28;20041;-64
2022/05/05 10:20:07;;;;;;;13.68;7.53;;;;;;;;;;5013466;28;20151;-64
2022/05/05 10:22:37;;;;;;;10.27;7.03;;;;;;;;;;5018864;28;20048;-64
2022/05/05 10:25:12;;;;;;;13.05;7.95;;;;;;;;;;5016295;28;20091;-64
2022/05/05 10:27:43;;;;;;;12.85;8.23;;;;;;;;;;5000966;28;20080;-64
2022/05/05 10:30:16;;;;;;;10.85;8.10;;;;;;;;;;5016956;28;20180;-64
2022/05/05 10:32:43;;;;;;;10.68;7.47;;;;;;;;;;5023662;28;20149;-64
2022/05/05 10:35:21;;;;;;;12.52;7.70;;;;;;;;;;5021823;28;20420;-64
2022/05/05 10:37:47;;;;;;;11.82;7.97;;;;;;;;;;5020046;28;20045;-64
2022/05/05 10:40:14;;;;;;;11.85;7.22;;;;;;;;;;5019271;28;20096;-64
2022/05/05 10:42:43;;;;;;;15.35;8.68;;;;;;;;;;5016403;28;20564;-64
2022/05/05 10:45:12;;;;;;;12.88;8.15;;;;;;;;;;5018215;28;20041;-64
2022/05/05 10:47:47;;;;;;;11.07;7.25;;;;;;;;;;5019588;28;20179;-64
2022/05/05 10:50:34;;;;;;;13.13;7.78;;;;;;;;;;5005352;28;20058;-64
2022/05/05 10:53:00;;;;;;;11.70;7.22;;;;;;;;;;5018686;28;20049;-63
2022/05/05 10:55:28;;;;;;;11.48;7.88;;;;;;;;;;5019870;28;20147;-64
2022/05/05 10:57:54;;;;;;;11.95;7.05;;;;;;;;;;5000391;28;20041;-64
2022/05/05 11:00:22;;;;;;;12.07;7.57;;;;;;;;;;5015472;28;20092;-64
2022/05/05 11:02:58;;;;;;;13.18;8.35;;;;;;;;;;5014671;28;20057;-63
2022/05/05 11:05:30;;;;;;;9.70;6.85;;;;;;;;;;5005880;28;20362;-64
2022/05/05 11:08:08;;;;;;;10.98;7.47;;;;;;;;;;5016580;28;20583;-64
2022/05/05 11:10:41;;;;;;;12.25;7.70;;;;;;;;;;5000904;28;20046;-64
2022/05/05 11:13:08;;;;;;;12.02;7.15;;;;;;;;;;5015777;28;20411;-64
2022/05/05 11:21:33;;;;;;;9.63;6.93;;;;;;;;;;5021284;28;20399;-64
2022/05/05 11:24:00;;;;;;;11.82;8.02;;;;;;;;;;5002690;28;20045;-64
2022/05/05 11:26:27;;;;;;;11.52;7.95;;;;;;;;;;5022502;28;20183;-64
2022/05/05 11:28:53;;;;;;;10.48;7.40;;;;;;;;;;5003379;28;20041;-64
2022/05/05 11:31:21;;;;;;;10.30;7.30;;;;;;;;;;5005989;28;20077;-66
2022/05/05 11:33:48;;;;;;;12.32;8.13;;;;;;;;;;5022817;28;20506;-65
2022/05/05 11:36:14;;;;;;;10.95;7.10;;;;;;;;;;5021347;28;20046;-67
2022/05/05 11:38:42;;;;;;;10.73;7.22;;;;;;;;;;5004504;28;20049;-68
2022/05/05 11:41:08;;;;;;;12.52;7.63;;;;;;;;;;5002829;28;20061;-68
2022/05/05 11:46:20;;;;;;;11.07;8.52;;;;;;;;;;5020778;28;20087;-68
2022/05/05 11:48:54;;;;;;;12.32;8.88;;;;;;;;;;5022106;28;20048;-68
2022/05/05 11:51:21;;;;;;;14.10;8.55;;;;;;;;;;4997842;28;20049;-66
2022/05/05 11:53:48;;;;;;;13.63;8.50;;;;;;;;;;5024362;28;20044;-66
2022/05/05 11:56:15;;;;;;;14.52;8.93;;;;;;;;;;5019886;28;20050;-66
2022/05/05 12:01:41;;;;;;;15.02;10.10;;;;;;;;;;5020392;28;20512;-64
2022/05/05 12:04:09;;;;;;;14.70;10.65;;;;;;;;;;5020970;28;20501;-64
2022/05/05 12:06:36;;;;;;;14.57;9.48;;;;;;;;;;5023774;28;20037;-64
2022/05/05 12:09:03;;;;;;;14.18;10.27;;;;;;;;;;5001461;28;20056;-64
2022/05/05 12:11:29;;;;;;;17.58;10.30;;;;;;;;;;5001342;28;20049;-64
2022/05/05 12:14:00;;;;;;;16.13;10.00;;;;;;;;;;5006818;28;20076;-64
2022/05/05 12:16:30;;;;;;;14.43;10.45;;;;;;;;;;5017028;28;20122;-64
2022/05/05 12:18:57;;;;;;;14.57;11.07;;;;;;;;;;5021575;28;20045;-64
2022/05/05 12:21:25;;;;;;;14.80;11.18;;;;;;;;;;5018842;28;20113;-64
2022/05/05 12:24:00;;;;;;;15.55;11.50;;;;;;;;;;4998943;28;20120;-64
2022/05/05 12:26:28;;;;;;;18.95;11.52;;;;;;;;;;5005394;28;20087;-64
2022/05/05 12:28:55;;;;;;;14.60;10.07;;;;;;;;;;5015084;28;20568;-65
2022/05/05 12:31:22;;;;;;;15.10;10.90;;;;;;;;;;5014337;28;20406;-64
2022/05/05 12:33:48;;;;;;;15.82;10.88;;;;;;;;;;5020906;28;21418;-64
2022/05/05 12:36:15;;;;;;;15.35;11.70;;;;;;;;;;5022385;28;20059;-64
2022/05/05 12:38:41;;;;;;;13.65;10.82;;;;;;;;;;5024646;28;20083;-64
2022/05/05 12:41:09;;;;;;;18.58;11.73;;;;;;;;;;5025042;28;20045;-64
2022/05/05 12:43:35;;;;;;;16.17;11.93;;;;;;;;;;5023523;28;20049;-64
2022/05/05 12:46:02;;;;;;;18.85;13.45;;;;;;;;;;5018916;28;20153;-64
2022/05/05 12:48:29;;;;;;;17.05;12.15;;;;;;;;;;5021144;28;20370;-64
2022/05/05 12:50:55;;;;;;;17.58;13.50;;;;;;;;;;5023385;28;20147;-65
2022/05/05 13:01:46;;;;;;;24.58;16.17;;;;;;;;;;5005316;28;20144;-64
2022/05/05 13:04:15;;;;;;;20.50;16.50;;;;;;;;;;5020190;28;20034;-76
2022/05/05 13:06:42;;;;;;;20.42;14.52;;;;;;;;;;5006592;28;20093;-65
2022/05/05 13:09:08;;;;;;;22.85;15.15;;;;;;;;;;5016302;28;20034;-65
2022/05/05 13:11:35;;;;;;;20.98;14.63;;;;;;;;;;5003392;28;20045;-65
2022/05/05 13:14:02;;;;;;;21.85;13.85;;;;;;;;;;5002793;28;20041;-64
2022/05/05 13:16:29;;;;;;;19.63;15.38;;;;;;;;;;5018302;28;20421;-65
2022/05/05 13:18:57;;;;;;;17.85;14.35;;;;;;;;;;5014254;28;20609;-65
2022/05/05 13:21:23;;;;;;;25.00;15.70;;;;;;;;;;5015168;28;20105;-65
2022/05/05 13:23:51;;;;;;;21.95;15.73;;;;;;;;;;5003959;28;20049;-65
2022/05/05 13:26:17;;;;;;;27.88;20.35;;;;;;;;;;5014364;28;20379;-65
2022/05/05 13:28:43;;;;;;;29.88;22.55;;;;;;;;;;5017313;28;20442;-64
2022/05/05 13:31:10;;;;;;;31.85;21.80;;;;;;;;;;5020083;28;20056;-64
2022/05/05 13:33:36;;;;;;;31.05;22.25;;;;;;;;;;5013140;28;20057;-73
2022/05/05 13:36:02;;;;;;;28.92;21.77;;;;;;;;;;5006527;28;20045;-64
2022/05/05 13:38:28;;;;;;;35.83;23.08;;;;;;;;;;5016412;28;20042;-64
2022/05/05 13:40:56;;;;;;;30.95;22.60;;;;;;;;;;5014905;28;20108;-64
2022/05/05 13:43:22;;;;;;;29.27;21.88;;;;;;;;;;5018399;28;20565;-64
2022/05/05 13:45:48;;;;;;;34.72;24.30;;;;;;;;;;5022634;28;20029;-64
2022/05/05 13:48:15;;;;;;;33.88;24.50;;;;;;;;;;5021982;28;20037;-64
2022/05/05 13:50:41;;;;;;;37.35;25.48;;;;;;;;;;5017982;28;20042;-64
2022/05/05 13:53:07;;;;;;;34.88;23.75;;;;;;;;;;5013169;28;20389;-64
2022/05/05 13:55:34;;;;;;;37.03;25.40;;;;;;;;;;5005954;28;20191;-64
2022/05/05 13:58:00;;;;;;;36.78;24.70;;;;;;;;;;5016212;28;20064;-63
2022/05/05 14:00:27;;;;;;;38.47;26.20;;;;;;;;;;5017966;28;20050;-64
2022/05/05 14:02:53;;;;;;;35.80;26.85;;;;;;;;;;5000616;28;20057;-64
2022/05/05 14:05:19;;;;;;;37.30;26.45;;;;;;;;;;5034662;28;20120;-64
2022/05/05 14:13:15;;;;;;;41.65;27.45;;;;;;;;;;5024744;28;20045;-64
2022/05/05 14:15:41;;;;;;;37.28;25.88;;;;;;;;;;5023088;28;20117;-79
2022/05/05 14:18:08;;;;;;;37.97;26.15;;;;;;;;;;4986811;28;20045;-64
2022/05/05 14:20:34;;;;;;;40.30;26.23;;;;;;;;;;5027383;28;20389;-65
2022/05/05 14:23:01;;;;;;;38.35;25.05;;;;;;;;;;5030524;28;20351;-64
2022/05/05 14:25:28;;;;;;;37.83;25.80;;;;;;;;;;5032451;28;20050;-64
2022/05/05 14:27:54;;;;;;;29.83;23.15;;;;;;;;;;5031720;28;20401;-64
2022/05/05 14:30:21;;;;;;;38.92;27.00;;;;;;;;;;5020679;28;20125;-64
2022/05/05 14:32:47;;;;;;;38.05;25.98;;;;;;;;;;5022813;28;20061;-64
2022/05/05 14:35:13;;;;;;;37.63;27.40;;;;;;;;;;5007533;28;20041;-64
2022/05/05 14:37:40;;;;;;;37.83;28.42;;;;;;;;;;5023483;28;20045;-64
2022/05/05 14:40:06;;;;;;;39.70;28.48;;;;;;;;;;5023150;28;20069;-64
2022/05/05 14:42:33;;;;;;;34.72;25.15;;;;;;;;;;5024447;28;20068;-64
2022/05/05 14:44:59;;;;;;;36.55;23.85;;;;;;;;;;5003694;28;20059;-64
2022/05/05 14:47:25;;;;;;;33.47;24.33;;;;;;;;;;5003752;28;20137;-64
2022/05/05 14:49:54;;;;;;;32.90;23.63;;;;;;;;;;5021315;28;20044;-64
2022/05/05 14:52:21;;;;;;;34.00;23.58;;;;;;;;;;5005401;28;20073;-65
2022/05/05 14:54:47;;;;;;;34.38;22.60;;;;;;;;;;5008417;28;20509;-64
2022/05/05 14:57:15;;;;;;;40.47;26.35;;;;;;;;;;5004902;28;20132;-64
2022/05/05 14:59:41;;;;;;;38.63;29.05;;;;;;;;;;5023521;28;20168;-64
2022/05/05 15:02:09;;;;;;;37.90;28.10;;;;;;;;;;5025302;28;20140;-64
2022/05/05 15:04:35;;;;;;;33.60;25.65;;;;;;;;;;5022693;28;20041;-64
2022/05/05 15:07:01;;;;;;;35.15;24.60;;;;;;;;;;5004468;28;20490;-65
2022/05/05 15:09:28;;;;;;;37.65;27.10;;;;;;;;;;5023066;28;20546;-64
2022/05/05 15:11:55;;;;;;;38.08;27.95;;;;;;;;;;5022431;28;20505;-64
2022/05/05 15:14:21;;;;;;;37.40;25.27;;;;;;;;;;5024101;28;20386;-64
2022/05/05 15:16:48;;;;;;;36.65;27.20;;;;;;;;;;5024640;28;20095;-64
2022/05/05 15:19:14;;;;;;;36.65;26.92;;;;;;;;;;5004823;28;20493;-64
2022/05/05 15:21:40;;;;;;;36.35;25.30;;;;;;;;;;5023796;28;20179;-64
2022/05/05 15:24:07;;;;;;;40.28;27.73;;;;;;;;;;5024801;28;20042;-64